^^
Your Local Weather - Clay, NY Station Historical Data
Daily Summary for January 8, 2018 Units:  Both    English   Metric
« Previous Day
Next Day »
Daily Weekly Monthly Yearly Custom
  High: Low: Average:
Temperature: 38.0 °F /  3.3 °C 25.4 °F /  -3.7 °C 34.2 °F /  1.2 °C
Dew Point: 31.5 °F /  -0.3 °C 14.9 °F /  -9.5 °C 27 °F /  -2.8 °C
Humidity: 87% 52% 75%
Wind Speed: 6.0mph /  9.7km/h - 2.9mph /  4.7km/h
Wind Gust: 10.0mph /  16.1km/h - -
Wind- - SW
Pressure: 30.03 in /  1016.8 hPa 29.80 in /  1009 hPa -
Precipitation: 0.10 in /  2.54 mm    
Historical Graphs
 
 
Tabular Data for January 8, 2018
Time Temperature Dew Point Pressure Wind Wind Speed Wind Gust Humidity Rainfall Rate (Hourly) solar
04:18 30.4 °F /  -0.9 °C 14.9 °F /  -9.5 °C 30.02in /  1016.5hPa SSW 1.0mph /  1.6km/h 2.0mph /  3.2km/h 52% 0.00in /  0mm 0 W/m2
04:20 30.5 °F /  -0.8 °C 14.9 °F /  -9.5 °C 30.03in /  1016.8hPa SSW 1.0mph /  1.6km/h 3.0mph /  4.8km/h 52% 0.00in /  0mm 0 W/m2
04:38 31.2 °F /  -0.4 °C 16.0 °F /  -8.9 °C 30.01in /  1016.1hPa SW 2.0mph /  3.2km/h 4.0mph /  6.4km/h 53% 0.00in /  0mm 0 W/m2
04:40 31.3 °F /  -0.4 °C 16.6 °F /  -8.6 °C 30.02in /  1016.5hPa South 2.0mph /  3.2km/h 4.0mph /  6.4km/h 54% 0.00in /  0mm 0 W/m2
04:46 31.3 °F /  -0.4 °C 17.0 °F /  -8.3 °C 30.01in /  1016.1hPa South 3.0mph /  4.8km/h 4.0mph /  6.4km/h 55% 0.00in /  0mm 0 W/m2
04:54 31.1 °F /  -0.5 °C 18.0 °F /  -7.8 °C 30.02in /  1016.5hPa SSW 3.0mph /  4.8km/h 3.0mph /  4.8km/h 58% 0.00in /  0mm 0 W/m2
05:00 31.0 °F /  -0.6 °C 18.7 °F /  -7.4 °C 30.02in /  1016.5hPa South 3.0mph /  4.8km/h 3.0mph /  4.8km/h 60% 0.00in /  0mm 0 W/m2
05:06 31.0 °F /  -0.6 °C 18.3 °F /  -7.6 °C 30.02in /  1016.5hPa SSE 3.0mph /  4.8km/h 4.0mph /  6.4km/h 59% 0.00in /  0mm 0 W/m2
05:14 30.6 °F /  -0.8 °C 18.0 °F /  -7.8 °C 30.02in /  1016.5hPa SSE 3.0mph /  4.8km/h 6.0mph /  9.7km/h 59% 0.00in /  0mm 0 W/m2
05:24 29.7 °F /  -1.3 °C 19.0 °F /  -7.2 °C 30.02in /  1016.5hPa South 4.0mph /  6.4km/h 4.0mph /  6.4km/h 64% 0.00in /  0mm 0 W/m2
05:30 28.7 °F /  -1.8 °C 19.5 °F /  -6.9 °C 30.02in /  1016.5hPa South 4.0mph /  6.4km/h 4.0mph /  6.4km/h 68% 0.00in /  0mm 0 W/m2
05:38 27.1 °F /  -2.7 °C 20.5 °F /  -6.4 °C 30.02in /  1016.5hPa South 6.0mph /  9.7km/h 8.0mph /  12.9km/h 76% 0.00in /  0mm 0 W/m2
05:46 26.3 °F /  -3.2 °C 21.3 °F /  -5.9 °C 30.02in /  1016.5hPa SSE 5.0mph /  8km/h 8.0mph /  12.9km/h 81% 0.00in /  0mm 0 W/m2
06:03 25.7 °F /  -3.5 °C 22.1 °F /  -5.5 °C 30.02in /  1016.5hPa SE 4.0mph /  6.4km/h 4.0mph /  6.4km/h 86% 0.00in /  0mm 0 W/m2
06:08 25.6 °F /  -3.6 °C 22.0 °F /  -5.6 °C 30.02in /  1016.5hPa SSE 3.0mph /  4.8km/h 4.0mph /  6.4km/h 86% 0.00in /  0mm 0 W/m2
06:16 25.4 °F /  -3.7 °C 22.1 °F /  -5.5 °C 30.02in /  1016.5hPa South 3.0mph /  4.8km/h 4.0mph /  6.4km/h 87% 0.00in /  0mm 0 W/m2
06:58 25.9 °F /  -3.4 °C 22.6 °F /  -5.2 °C 29.98in /  1015.1hPa SSE 3.0mph /  4.8km/h 4.0mph /  6.4km/h 87% 0.00in /  0mm 0 W/m2
07:06 25.9 °F /  -3.4 °C 22.3 °F /  -5.4 °C 29.98in /  1015.1hPa East 2.0mph /  3.2km/h 3.0mph /  4.8km/h 86% 0.00in /  0mm 0 W/m2
07:22 25.6 °F /  -3.6 °C 22.0 °F /  -5.6 °C 29.97in /  1014.8hPa SE 2.0mph /  3.2km/h 3.0mph /  4.8km/h 86% 0.00in /  0mm 0 W/m2
07:28 25.4 °F /  -3.7 °C 21.8 °F /  -5.7 °C 29.96in /  1014.4hPa ESE 3.0mph /  4.8km/h 4.0mph /  6.4km/h 86% 0.00in /  0mm 0 W/m2
08:56 28.3 °F /  -2.1 °C 18.7 °F /  -7.4 °C 29.95in /  1014.1hPa SE 4.0mph /  6.4km/h 6.0mph /  9.7km/h 67% 0.00in /  0mm 0 W/m2
10:40 28.3 °F /  -2.1 °C 22.9 °F /  -5.1 °C 29.89in /  1012.1hPa SSE 3.0mph /  4.8km/h 3.0mph /  4.8km/h 80% 0.00in /  0mm 9 W/m2
11:03 28.5 °F /  -1.9 °C 24.3 °F /  -4.3 °C 29.88in /  1011.7hPa SSW 2.0mph /  3.2km/h 4.0mph /  6.4km/h 84% 0.00in /  0mm 11 W/m2
11:30 30.5 °F /  -0.8 °C 26.2 °F /  -3.2 °C 29.86in /  1011.1hPa SW 2.0mph /  3.2km/h 4.0mph /  6.4km/h 84% 0.00in /  0mm 25 W/m2
11:38 31.3 °F /  -0.4 °C 26.1 °F /  -3.3 °C 29.85in /  1010.7hPa South 3.0mph /  4.8km/h 4.0mph /  6.4km/h 81% 0.00in /  0mm 23 W/m2
11:44 32.2 °F /  0.1 °C 25.5 °F /  -3.6 °C 29.84in /  1010.4hPa SSW 3.0mph /  4.8km/h 5.0mph /  8km/h 76% 0.00in /  0mm 25 W/m2
11:50 33.2 °F /  0.7 °C 24.8 °F /  -4 °C 29.84in /  1010.4hPa SW 4.0mph /  6.4km/h 4.0mph /  6.4km/h 71% 0.00in /  0mm 28 W/m2
11:56 33.9 °F /  1.1 °C 24.4 °F /  -4.2 °C 29.84in /  1010.4hPa South 5.0mph /  8km/h 7.0mph /  11.3km/h 68% 0.00in /  0mm 23 W/m2
12:06 34.4 °F /  1.3 °C 24.2 °F /  -4.3 °C 29.83in /  1010hPa SSW 5.0mph /  8km/h 10.0mph /  16.1km/h 66% 0.00in /  0mm 21 W/m2
12:12 34.6 °F /  1.4 °C 24.0 °F /  -4.4 °C 29.83in /  1010hPa SSW 5.0mph /  8km/h 7.0mph /  11.3km/h 65% 0.00in /  0mm 18 W/m2
12:20 34.7 °F /  1.5 °C 24.1 °F /  -4.4 °C 29.83in /  1010hPa SW 5.0mph /  8km/h 5.0mph /  8km/h 65% 0.00in /  0mm 16 W/m2
12:26 34.8 °F /  1.6 °C 24.2 °F /  -4.3 °C 29.83in /  1010hPa SSW 4.0mph /  6.4km/h 6.0mph /  9.7km/h 65% 0.00in /  0mm 14 W/m2
12:32 35.1 °F /  1.7 °C 24.1 °F /  -4.4 °C 29.82in /  1009.7hPa SW 4.0mph /  6.4km/h 4.0mph /  6.4km/h 64% 0.00in /  0mm 14 W/m2
12:38 35.3 °F /  1.8 °C 24.3 °F /  -4.3 °C 29.82in /  1009.7hPa WSW 5.0mph /  8km/h 8.0mph /  12.9km/h 64% 0.00in /  0mm 14 W/m2
12:46 35.3 °F /  1.8 °C 24.3 °F /  -4.3 °C 29.81in /  1009.4hPa SSW 4.0mph /  6.4km/h 8.0mph /  12.9km/h 64% 0.00in /  0mm 12 W/m2
12:50 35.3 °F /  1.8 °C 24.7 °F /  -4.1 °C 29.81in /  1009.4hPa SSW 5.0mph /  8km/h 5.0mph /  8km/h 65% 0.00in /  0mm 12 W/m2
12:56 35.4 °F /  1.9 °C 24.8 °F /  -4 °C 29.81in /  1009.4hPa SW 5.0mph /  8km/h 6.0mph /  9.7km/h 65% 0.00in /  0mm 11 W/m2
13:02 35.4 °F /  1.9 °C 24.8 °F /  -4 °C 29.81in /  1009.4hPa SSW 5.0mph /  8km/h 5.0mph /  8km/h 65% 0.00in /  0mm 11 W/m2
13:10 35.4 °F /  1.9 °C 25.2 °F /  -3.8 °C 29.81in /  1009.4hPa SW 4.0mph /  6.4km/h 4.0mph /  6.4km/h 66% 0.00in /  0mm 9 W/m2
13:16 35.4 °F /  1.9 °C 25.2 °F /  -3.8 °C 29.81in /  1009.4hPa SSW 4.0mph /  6.4km/h 6.0mph /  9.7km/h 66% 0.00in /  0mm 9 W/m2
13:22 35.4 °F /  1.9 °C 25.9 °F /  -3.4 °C 29.81in /  1009.4hPa SSW 4.0mph /  6.4km/h 4.0mph /  6.4km/h 68% 0.00in /  0mm 9 W/m2
13:30 35.6 °F /  2 °C 26.1 °F /  -3.3 °C 29.80in /  1009hPa SW 4.0mph /  6.4km/h 4.0mph /  6.4km/h 68% 0.00in /  0mm 12 W/m2
13:38 35.6 °F /  2 °C 26.4 °F /  -3.1 °C 29.80in /  1009hPa South 3.0mph /  4.8km/h 5.0mph /  8km/h 69% 0.00in /  0mm 11 W/m2
13:44 35.8 °F /  2.1 °C 26.6 °F /  -3 °C 29.80in /  1009hPa SSW 3.0mph /  4.8km/h 4.0mph /  6.4km/h 69% 0.00in /  0mm 9 W/m2
13:54 35.9 °F /  2.2 °C 27.1 °F /  -2.7 °C 29.80in /  1009hPa SW 3.0mph /  4.8km/h 9.0mph /  14.5km/h 70% 0.00in /  0mm 14 W/m2
14:03 36.0 °F /  2.2 °C 27.2 °F /  -2.7 °C 29.81in /  1009.4hPa SW 3.0mph /  4.8km/h 6.0mph /  9.7km/h 70% 0.00in /  0mm 11 W/m2
14:10 36.2 °F /  2.3 °C 27.4 °F /  -2.6 °C 29.81in /  1009.4hPa SSW 3.0mph /  4.8km/h 3.0mph /  4.8km/h 70% 0.00in /  0mm 14 W/m2
14:16 36.2 °F /  2.3 °C 27.7 °F /  -2.4 °C 29.81in /  1009.4hPa SSW 2.0mph /  3.2km/h 4.0mph /  6.4km/h 71% 0.00in /  0mm 14 W/m2
14:22 36.3 °F /  2.4 °C 27.8 °F /  -2.3 °C 29.81in /  1009.4hPa SW 3.0mph /  4.8km/h 7.0mph /  11.3km/h 71% 0.00in /  0mm 21 W/m2
14:28 36.4 °F /  2.4 °C 27.9 °F /  -2.3 °C 29.80in /  1009hPa South 3.0mph /  4.8km/h 7.0mph /  11.3km/h 71% 0.00in /  0mm 19 W/m2
14:34 36.6 °F /  2.6 °C 28.1 °F /  -2.2 °C 29.80in /  1009hPa SSW 4.0mph /  6.4km/h 4.0mph /  6.4km/h 71% 0.00in /  0mm 23 W/m2
14:42 36.6 °F /  2.6 °C 28.1 °F /  -2.2 °C 29.81in /  1009.4hPa SSW 3.0mph /  4.8km/h 4.0mph /  6.4km/h 71% 0.00in /  0mm 26 W/m2
14:48 36.6 °F /  2.6 °C 28.4 °F /  -2 °C 29.81in /  1009.4hPa SSW 2.0mph /  3.2km/h 4.0mph /  6.4km/h 72% 0.00in /  0mm 25 W/m2
14:54 36.6 °F /  2.6 °C 28.4 °F /  -2 °C 29.81in /  1009.4hPa SSW 2.0mph /  3.2km/h 4.0mph /  6.4km/h 72% 0.00in /  0mm 21 W/m2
15:00 36.5 °F /  2.5 °C 28.3 °F /  -2.1 °C 29.81in /  1009.4hPa SSW 2.0mph /  3.2km/h 3.0mph /  4.8km/h 72% 0.00in /  0mm 23 W/m2
15:10 36.6 °F /  2.6 °C 28.4 °F /  -2 °C 29.81in /  1009.4hPa South 3.0mph /  4.8km/h 4.0mph /  6.4km/h 72% 0.00in /  0mm 21 W/m2
16:46 38.0 °F /  3.3 °C 29.8 °F /  -1.2 °C 29.83in /  1010hPa WSW 5.0mph /  8km/h 9.0mph /  14.5km/h 72% 0.00in /  0mm 0 W/m2
17:28 37.8 °F /  3.2 °C 29.9 °F /  -1.2 °C 29.84in /  1010.4hPa SW 4.0mph /  6.4km/h 5.0mph /  8km/h 73% 0.00in /  0mm 0 W/m2
17:46 37.8 °F /  3.2 °C 29.9 °F /  -1.2 °C 29.84in /  1010.4hPa WSW 4.0mph /  6.4km/h 9.0mph /  14.5km/h 73% 0.00in /  0mm 0 W/m2
18:14 37.5 °F /  3.1 °C 30.3 °F /  -0.9 °C 29.85in /  1010.7hPa West 3.0mph /  4.8km/h 6.0mph /  9.7km/h 75% 0.00in /  0mm 0 W/m2
18:50 37.3 °F /  2.9 °C 30.4 °F /  -0.9 °C 29.86in /  1011.1hPa West 3.0mph /  4.8km/h 3.0mph /  4.8km/h 76% 0.00in /  0mm 0 W/m2
19:20 36.9 °F /  2.7 °C 30.7 °F /  -0.7 °C 29.86in /  1011.1hPa WSW 1.0mph /  1.6km/h 1.0mph /  1.6km/h 78% 0.00in /  0mm 0 W/m2
19:38 36.8 °F /  2.7 °C 30.9 °F /  -0.6 °C 29.87in /  1011.4hPa West 2.0mph /  3.2km/h 3.0mph /  4.8km/h 79% 0.00in /  0mm 0 W/m2
19:46 36.8 °F /  2.7 °C 30.9 °F /  -0.6 °C 29.87in /  1011.4hPa WNW 2.0mph /  3.2km/h 3.0mph /  4.8km/h 79% 0.00in /  0mm 0 W/m2
19:50 36.6 °F /  2.6 °C 30.7 °F /  -0.7 °C 29.87in /  1011.4hPa WSW 2.0mph /  3.2km/h 2.0mph /  3.2km/h 79% 0.00in /  0mm 0 W/m2
19:58 36.5 °F /  2.5 °C 30.6 °F /  -0.8 °C 29.87in /  1011.4hPa NW 1.0mph /  1.6km/h 2.0mph /  3.2km/h 79% 0.00in /  0mm 0 W/m2
20:04 36.4 °F /  2.4 °C 30.8 °F /  -0.7 °C 29.87in /  1011.4hPa NW 1.0mph /  1.6km/h 4.0mph /  6.4km/h 80% 0.00in /  0mm 0 W/m2
20:06 36.4 °F /  2.4 °C 30.8 °F /  -0.7 °C 29.87in /  1011.4hPa NW 1.0mph /  1.6km/h 4.0mph /  6.4km/h 80% 0.00in /  0mm 0 W/m2
20:12 36.4 °F /  2.4 °C 30.8 °F /  -0.7 °C 29.87in /  1011.4hPa West 1.0mph /  1.6km/h 2.0mph /  3.2km/h 80% 0.00in /  0mm 0 W/m2
20:18 36.5 °F /  2.5 °C 30.9 °F /  -0.6 °C 29.87in /  1011.4hPa WNW 2.0mph /  3.2km/h 3.0mph /  4.8km/h 80% 0.00in /  0mm 0 W/m2
20:24 36.5 °F /  2.5 °C 30.9 °F /  -0.6 °C 29.87in /  1011.4hPa West 2.0mph /  3.2km/h 4.0mph /  6.4km/h 80% 0.00in /  0mm 0 W/m2
20:28 36.4 °F /  2.4 °C 31.1 °F /  -0.5 °C 29.87in /  1011.4hPa WNW 4.0mph /  6.4km/h 5.0mph /  8km/h 81% 0.00in /  0mm 0 W/m2
20:34 36.2 °F /  2.3 °C 30.9 °F /  -0.6 °C 29.87in /  1011.4hPa WNW 3.0mph /  4.8km/h 4.0mph /  6.4km/h 81% 0.00in /  0mm 0 W/m2
20:42 35.9 °F /  2.2 °C 31.2 °F /  -0.4 °C 29.88in /  1011.7hPa West 2.0mph /  3.2km/h 2.0mph /  3.2km/h 83% 0.00in /  0mm 0 W/m2
20:46 35.7 °F /  2.1 °C 31.0 °F /  -0.6 °C 29.88in /  1011.7hPa WNW 2.0mph /  3.2km/h 3.0mph /  4.8km/h 83% 0.00in /  0mm 0 W/m2
20:52 35.5 °F /  1.9 °C 31.1 °F /  -0.5 °C 29.88in /  1011.7hPa WNW 1.0mph /  1.6km/h 2.0mph /  3.2km/h 84% 0.00in /  0mm 0 W/m2
20:56 35.3 °F /  1.8 °C 31.2 °F /  -0.4 °C 29.88in /  1011.7hPa WSW 1.0mph /  1.6km/h 3.0mph /  4.8km/h 85% 0.00in /  0mm 0 W/m2
21:04 35.2 °F /  1.8 °C 31.4 °F /  -0.3 °C 29.88in /  1011.7hPa West 2.0mph /  3.2km/h 4.0mph /  6.4km/h 86% 0.00in /  0mm 0 W/m2
21:10 35.1 °F /  1.7 °C 31.3 °F /  -0.4 °C 29.88in /  1011.7hPa WSW 2.0mph /  3.2km/h 2.0mph /  3.2km/h 86% 0.00in /  0mm 0 W/m2
21:14 35.0 °F /  1.7 °C 31.2 °F /  -0.4 °C 29.88in /  1011.7hPa WSW 2.0mph /  3.2km/h 2.0mph /  3.2km/h 86% 0.00in /  0mm 0 W/m2
21:22 34.9 °F /  1.6 °C 31.4 °F /  -0.3 °C 29.88in /  1011.7hPa West 2.0mph /  3.2km/h 2.0mph /  3.2km/h 87% 0.00in /  0mm 0 W/m2
21:30 34.9 °F /  1.6 °C 31.4 °F /  -0.3 °C 29.88in /  1011.7hPa West 2.0mph /  3.2km/h 2.0mph /  3.2km/h 87% 0.00in /  0mm 0 W/m2
21:36 34.8 °F /  1.6 °C 31.3 °F /  -0.4 °C 29.88in /  1011.7hPa West 2.0mph /  3.2km/h 3.0mph /  4.8km/h 87% 0.04in /  1.02mm 0 W/m2
21:38 34.8 °F /  1.6 °C 31.3 °F /  -0.4 °C 29.88in /  1011.7hPa West 1.0mph /  1.6km/h 3.0mph /  4.8km/h 87% 0.04in /  1.02mm 0 W/m2
21:40 34.8 °F /  1.6 °C 31.3 °F /  -0.4 °C 29.88in /  1011.7hPa West 1.0mph /  1.6km/h 1.0mph /  1.6km/h 87% 0.04in /  1.02mm 0 W/m2
21:46 34.8 °F /  1.6 °C 31.3 °F /  -0.4 °C 29.88in /  1011.7hPa WSW 1.0mph /  1.6km/h 2.0mph /  3.2km/h 87% 0.04in /  1.02mm 0 W/m2
21:56 34.8 °F /  1.6 °C 31.3 °F /  -0.4 °C 29.88in /  1011.7hPa West 2.0mph /  3.2km/h 3.0mph /  4.8km/h 87% 0.00in /  0mm 0 W/m2
22:08 34.9 °F /  1.6 °C 31.4 °F /  -0.3 °C 29.88in /  1011.7hPa West 1.0mph /  1.6km/h 4.0mph /  6.4km/h 87% 0.00in /  0mm 0 W/m2
22:20 35.2 °F /  1.8 °C 31.4 °F /  -0.3 °C 29.88in /  1011.7hPa NW 2.0mph /  3.2km/h 2.0mph /  3.2km/h 86% 0.00in /  0mm 0 W/m2
22:24 35.3 °F /  1.8 °C 31.5 °F /  -0.3 °C 29.88in /  1011.7hPa WSW 3.0mph /  4.8km/h 3.0mph /  4.8km/h 86% 0.00in /  0mm 0 W/m2
22:26 35.3 °F /  1.8 °C 31.2 °F /  -0.4 °C 29.88in /  1011.7hPa WSW 2.0mph /  3.2km/h 3.0mph /  4.8km/h 85% 0.00in /  0mm 0 W/m2
22:32 35.4 °F /  1.9 °C 31.0 °F /  -0.6 °C 29.88in /  1011.7hPa WSW 2.0mph /  3.2km/h 3.0mph /  4.8km/h 84% 0.00in /  0mm 0 W/m2
22:34 35.5 °F /  1.9 °C 31.1 °F /  -0.5 °C 29.88in /  1011.7hPa West 2.0mph /  3.2km/h 5.0mph /  8km/h 84% 0.00in /  0mm 0 W/m2
22:36 35.5 °F /  1.9 °C 31.1 °F /  -0.5 °C 29.88in /  1011.7hPa West 3.0mph /  4.8km/h 5.0mph /  8km/h 84% 0.00in /  0mm 0 W/m2
22:42 35.6 °F /  2 °C 30.9 °F /  -0.6 °C 29.88in /  1011.7hPa West 3.0mph /  4.8km/h 3.0mph /  4.8km/h 83% 0.00in /  0mm 0 W/m2
22:44 35.7 °F /  2.1 °C 31.0 °F /  -0.6 °C 29.88in /  1011.7hPa WSW 3.0mph /  4.8km/h 3.0mph /  4.8km/h 83% 0.00in /  0mm 0 W/m2
22:52 35.7 °F /  2.1 °C 30.7 °F /  -0.7 °C 29.88in /  1011.7hPa West 3.0mph /  4.8km/h 3.0mph /  4.8km/h 82% 0.00in /  0mm 0 W/m2
22:56 35.8 °F /  2.1 °C 30.5 °F /  -0.8 °C 29.88in /  1011.7hPa WNW 3.0mph /  4.8km/h 4.0mph /  6.4km/h 81% 0.00in /  0mm 0 W/m2
23:00 35.9 °F /  2.2 °C 30.3 °F /  -0.9 °C 29.88in /  1011.7hPa WNW 3.0mph /  4.8km/h 4.0mph /  6.4km/h 80% 0.00in /  0mm 0 W/m2
23:06 36.1 °F /  2.3 °C 30.2 °F /  -1 °C 29.88in /  1011.7hPa West 4.0mph /  6.4km/h 4.0mph /  6.4km/h 79% 0.00in /  0mm 0 W/m2
23:12 36.0 °F /  2.2 °C 29.8 °F /  -1.2 °C 29.88in /  1011.7hPa West 2.0mph /  3.2km/h 3.0mph /  4.8km/h 78% 0.00in /  0mm 0 W/m2
23:14 36.0 °F /  2.2 °C 29.8 °F /  -1.2 °C 29.88in /  1011.7hPa West 2.0mph /  3.2km/h 4.0mph /  6.4km/h 78% 0.00in /  0mm 0 W/m2
23:16 35.9 °F /  2.2 °C 29.7 °F /  -1.3 °C 29.88in /  1011.7hPa West 2.0mph /  3.2km/h 4.0mph /  6.4km/h 78% 0.00in /  0mm 0 W/m2
23:28 36.1 °F /  2.3 °C 29.6 °F /  -1.3 °C 29.88in /  1011.7hPa WSW 4.0mph /  6.4km/h 5.0mph /  8km/h 77% 0.00in /  0mm 0 W/m2
23:32 36.1 °F /  2.3 °C 29.6 °F /  -1.3 °C 29.88in /  1011.7hPa WNW 4.0mph /  6.4km/h 5.0mph /  8km/h 77% 0.00in /  0mm 0 W/m2
23:34 36.1 °F /  2.3 °C 29.3 °F /  -1.5 °C 29.88in /  1011.7hPa WNW 4.0mph /  6.4km/h 5.0mph /  8km/h 76% 0.00in /  0mm 0 W/m2
23:36 36.1 °F /  2.3 °C 29.3 °F /  -1.5 °C 29.88in /  1011.7hPa WSW 4.0mph /  6.4km/h 5.0mph /  8km/h 76% 0.00in /  0mm 0 W/m2
23:38 36.1 °F /  2.3 °C 29.3 °F /  -1.5 °C 29.88in /  1011.7hPa NW 4.0mph /  6.4km/h 5.0mph /  8km/h 76% 0.00in /  0mm 0 W/m2
23:44 36.1 °F /  2.3 °C 29.3 °F /  -1.5 °C 29.88in /  1011.7hPa West 4.0mph /  6.4km/h 6.0mph /  9.7km/h 76% 0.00in /  0mm 0 W/m2
23:52 36.0 °F /  2.2 °C 29.2 °F /  -1.6 °C 29.88in /  1011.7hPa WSW 3.0mph /  4.8km/h 4.0mph /  6.4km/h 76% 0.00in /  0mm 0 W/m2
23:54 36.0 °F /  2.2 °C 29.2 °F /  -1.6 °C 29.88in /  1011.7hPa WSW 3.0mph /  4.8km/h 4.0mph /  6.4km/h 76% 0.00in /  0mm 0 W/m2
Country Meadow, Clay, NY, USA
Compliments of Weather Underground - 2 mb